sensor_id;sensor_type;location;lat;lon;timestamp;pressure;altitude;pressure_sealevel;temperature;humidity
41234;BME280;26968;42.686;23.352;2023-01-28T00:01:42;94582.97;;;-0.42;83.44
41234;BME280;26968;42.686;23.352;2023-01-28T00:04:07;94468.41;;;-1.26;83.25
41234;BME280;26968;42.686;23.352;2023-01-28T00:06:32;94509.31;;;-0.97;83.62
41234;BME280;26968;42.686;23.352;2023-01-28T00:08:58;94531.13;;;-0.98;83.29
41234;BME280;26968;42.686;23.352;2023-01-28T00:11:23;94537.28;;;-1.10;83.79
41234;BME280;26968;42.686;23.352;2023-01-28T00:13:52;94563.81;;;-0.84;84.01
41234;BME280;26968;42.686;23.352;2023-01-28T00:16:19;94581.63;;;-0.81;83.75
41234;BME280;26968;42.686;23.352;2023-01-28T00:18:44;94536.16;;;-1.14;83.49
41234;BME280;26968;42.686;23.352;2023-01-28T00:21:12;94265.63;;;-2.72;83.35
41234;BME280;26968;42.686;23.352;2023-01-28T00:23:39;94380.63;;;-2.04;83.55
41234;BME280;26968;42.686;23.352;2023-01-28T00:26:14;94362.44;;;-2.04;83.48
41234;BME280;26968;42.686;23.352;2023-01-28T00:28:40;94606.28;;;-0.47;83.48
41234;BME280;26968;42.686;23.352;2023-01-28T00:31:07;94614.44;;;-0.43;83.26
41234;BME280;26968;42.686;23.352;2023-01-28T00:33:34;94539.31;;;-0.94;82.99
41234;BME280;26968;42.686;23.352;2023-01-28T00:36:00;94507.44;;;-1.26;82.58
41234;BME280;26968;42.686;23.352;2023-01-28T00:38:26;94615.91;;;-0.47;83.31
41234;BME280;26968;42.686;23.352;2023-01-28T00:40:52;94617.03;;;-0.43;83.22
41234;BME280;26968;42.686;23.352;2023-01-28T00:43:18;94596.22;;;-0.61;82.44
41234;BME280;26968;42.686;23.352;2023-01-28T00:45:43;94546.41;;;-1.20;82.35
41234;BME280;26968;42.686;23.352;2023-01-28T00:48:08;94576.09;;;-0.91;83.32
41234;BME280;26968;42.686;23.352;2023-01-28T00:50:34;94542.78;;;-1.19;82.99
41234;BME280;26968;42.686;23.352;2023-01-28T00:52:59;94517.06;;;-1.27;83.33
41234;BME280;26968;42.686;23.352;2023-01-28T00:55:25;94630.22;;;-0.56;82.95
41234;BME280;26968;42.686;23.352;2023-01-28T00:57:52;94514.59;;;-1.22;82.81
41234;BME280;26968;42.686;23.352;2023-01-28T01:00:18;94603.28;;;-0.68;82.84
41234;BME280;26968;42.686;23.352;2023-01-28T01:02:46;94569.59;;;-0.82;82.39
41234;BME280;26968;42.686;23.352;2023-01-28T01:05:11;94598.75;;;-0.55;82.49
41234;BME280;26968;42.686;23.352;2023-01-28T01:07:37;94518.50;;;-1.12;82.25
41234;BME280;26968;42.686;23.352;2023-01-28T01:10:12;94625.44;;;-0.59;82.49
41234;BME280;26968;42.686;23.352;2023-01-28T01:12:38;94510.31;;;-1.34;82.50
41234;BME280;26968;42.686;23.352;2023-01-28T01:15:04;94628.50;;;-0.62;83.37
41234;BME280;26968;42.686;23.352;2023-01-28T01:17:33;94567.22;;;-1.01;83.32
41234;BME280;26968;42.686;23.352;2023-01-28T01:20:00;94474.19;;;-1.42;82.88
41234;BME280;26968;42.686;23.352;2023-01-28T01:22:26;94573.38;;;-0.96;82.50
41234;BME280;26968;42.686;23.352;2023-01-28T01:24:51;94591.44;;;-0.83;82.80
41234;BME280;26968;42.686;23.352;2023-01-28T01:27:17;94534.31;;;-1.32;82.47
41234;BME280;26968;42.686;23.352;2023-01-28T01:29:42;94640.06;;;-0.58;82.72
41234;BME280;26968;42.686;23.352;2023-01-28T01:32:07;94589.34;;;-0.74;83.05
41234;BME280;26968;42.686;23.352;2023-01-28T01:34:33;94570.84;;;-1.02;82.89
41234;BME280;26968;42.686;23.352;2023-01-28T01:36:58;94569.38;;;-0.98;82.80
41234;BME280;26968;42.686;23.352;2023-01-28T01:39:23;94636.19;;;-0.38;82.30
41234;BME280;26968;42.686;23.352;2023-01-28T01:41:49;94601.66;;;-0.63;82.35
41234;BME280;26968;42.686;23.352;2023-01-28T01:53:02;94647.09;;;-0.77;84.08
41234;BME280;26968;42.686;23.352;2023-01-28T01:55:32;94552.00;;;-1.41;84.73
41234;BME280;26968;42.686;23.352;2023-01-28T01:58:03;94560.53;;;-1.34;84.91
41234;BME280;26968;42.686;23.352;2023-01-28T02:00:31;94581.47;;;-1.22;84.46
41234;BME280;26968;42.686;23.352;2023-01-28T02:02:57;94646.78;;;-0.87;84.39
41234;BME280;26968;42.686;23.352;2023-01-28T02:05:23;94562.34;;;-1.34;84.12
41234;BME280;26968;42.686;23.352;2023-01-28T02:07:52;94653.44;;;-0.73;84.44
41234;BME280;26968;42.686;23.352;2023-01-28T02:10:38;94658.22;;;-0.70;84.36
41234;BME280;26968;42.686;23.352;2023-01-28T02:13:04;94659.84;;;-0.75;83.84
41234;BME280;26968;42.686;23.352;2023-01-28T02:15:29;94650.63;;;-0.71;83.81
41234;BME280;26968;42.686;23.352;2023-01-28T02:17:55;94652.03;;;-0.75;84.10
41234;BME280;26968;42.686;23.352;2023-01-28T02:20:24;94644.81;;;-0.92;84.05
41234;BME280;26968;42.686;23.352;2023-01-28T02:26:01;94660.81;;;-0.70;83.77
41234;BME280;26968;42.686;23.352;2023-01-28T02:31:20;94634.63;;;-0.75;83.03
41234;BME280;26968;42.686;23.352;2023-01-28T02:34:13;94660.47;;;-0.55;82.98
41234;BME280;26968;42.686;23.352;2023-01-28T02:36:53;94653.88;;;-0.40;82.81
41234;BME280;26968;42.686;23.352;2023-01-28T02:39:28;94642.59;;;-0.70;82.79
41234;BME280;26968;42.686;23.352;2023-01-28T02:41:58;94624.22;;;-0.93;83.05
41234;BME280;26968;42.686;23.352;2023-01-28T02:44:26;94667.25;;;-0.72;82.87
41234;BME280;26968;42.686;23.352;2023-01-28T02:46:52;94664.28;;;-0.58;82.97
41234;BME280;26968;42.686;23.352;2023-01-28T02:49:49;94660.16;;;-0.65;82.35
41234;BME280;26968;42.686;23.352;2023-01-28T02:52:33;94658.22;;;-0.70;82.25
41234;BME280;26968;42.686;23.352;2023-01-28T02:55:42;94661.34;;;-0.61;82.55
41234;BME280;26968;42.686;23.352;2023-01-28T03:00:55;94616.91;;;-0.85;82.96
41234;BME280;26968;42.686;23.352;2023-01-28T03:03:39;94645.19;;;-0.70;82.68
41234;BME280;26968;42.686;23.352;2023-01-28T03:06:09;94672.81;;;-0.51;82.25
41234;BME280;26968;42.686;23.352;2023-01-28T03:08:41;94671.81;;;-0.50;82.49
41234;BME280;26968;42.686;23.352;2023-01-28T03:11:30;94654.81;;;-0.52;82.85
41234;BME280;26968;42.686;23.352;2023-01-28T03:14:16;94582.78;;;-0.95;82.08
41234;BME280;26968;42.686;23.352;2023-01-28T03:17:02;94666.81;;;-0.33;81.45
41234;BME280;26968;42.686;23.352;2023-01-28T03:19:48;94646.13;;;-0.64;80.81
41234;BME280;26968;42.686;23.352;2023-01-28T03:22:34;94526.28;;;-1.74;81.46
41234;BME280;26968;42.686;23.352;2023-01-28T03:25:21;94658.69;;;-0.98;82.57
41234;BME280;26968;42.686;23.352;2023-01-28T03:28:11;94633.78;;;-1.12;82.38
41234;BME280;26968;42.686;23.352;2023-01-28T03:31:13;94665.41;;;-1.08;82.49
41234;BME280;26968;42.686;23.352;2023-01-28T03:33:59;94685.41;;;-1.09;82.40
41234;BME280;26968;42.686;23.352;2023-01-28T03:36:45;94623.91;;;-1.46;82.50
41234;BME280;26968;42.686;23.352;2023-01-28T03:39:25;94695.19;;;-1.04;82.89
41234;BME280;26968;42.686;23.352;2023-01-28T03:44:24;94680.03;;;-0.89;82.62
41234;BME280;26968;42.686;23.352;2023-01-28T03:47:09;94682.56;;;-0.83;83.06
41234;BME280;26968;42.686;23.352;2023-01-28T03:49:41;94692.25;;;-0.90;83.49
41234;BME280;26968;42.686;23.352;2023-01-28T03:52:07;94681.81;;;-0.90;82.74
41234;BME280;26968;42.686;23.352;2023-01-28T03:54:33;94690.09;;;-0.93;83.45
41234;BME280;26968;42.686;23.352;2023-01-28T03:56:58;94675.94;;;-1.03;82.66
41234;BME280;26968;42.686;23.352;2023-01-28T03:59:24;94608.06;;;-1.45;83.46
41234;BME280;26968;42.686;23.352;2023-01-28T04:01:52;94561.16;;;-1.81;83.20
41234;BME280;26968;42.686;23.352;2023-01-28T04:04:17;94649.31;;;-1.24;83.26
41234;BME280;26968;42.686;23.352;2023-01-28T04:06:52;94641.97;;;-1.33;82.27
41234;BME280;26968;42.686;23.352;2023-01-28T04:09:20;94650.78;;;-1.34;82.84
41234;BME280;26968;42.686;23.352;2023-01-28T04:11:45;94674.28;;;-1.16;82.83
41234;BME280;26968;42.686;23.352;2023-01-28T04:14:11;94701.56;;;-1.00;82.68
41234;BME280;26968;42.686;23.352;2023-01-28T04:16:36;94651.75;;;-1.29;83.52
41234;BME280;26968;42.686;23.352;2023-01-28T04:19:02;94684.16;;;-1.25;82.88
41234;BME280;26968;42.686;23.352;2023-01-28T04:21:27;94703.94;;;-0.99;83.65
41234;BME280;26968;42.686;23.352;2023-01-28T04:23:53;94686.28;;;-1.15;83.68
41234;BME280;26968;42.686;23.352;2023-01-28T04:26:18;94594.31;;;-1.77;83.24
41234;BME280;26968;42.686;23.352;2023-01-28T04:28:43;94709.13;;;-0.99;83.14
41234;BME280;26968;42.686;23.352;2023-01-28T04:31:09;94532.34;;;-2.05;83.92
41234;BME280;26968;42.686;23.352;2023-01-28T04:33:34;94690.56;;;-1.02;82.87
41234;BME280;26968;42.686;23.352;2023-01-28T04:36:00;94649.31;;;-1.24;82.56
41234;BME280;26968;42.686;23.352;2023-01-28T04:38:25;94720.03;;;-1.08;82.41
41234;BME280;26968;42.686;23.352;2023-01-28T04:40:52;94725.00;;;-1.00;83.25
41234;BME280;26968;42.686;23.352;2023-01-28T04:43:17;94646.06;;;-1.44;83.24
41234;BME280;26968;42.686;23.352;2023-01-28T04:45:45;94734.16;;;-0.98;82.83
41234;BME280;26968;42.686;23.352;2023-01-28T04:48:11;94622.66;;;-1.69;83.56
41234;BME280;26968;42.686;23.352;2023-01-28T04:50:37;94730.94;;;-0.93;83.85
41234;BME280;26968;42.686;23.352;2023-01-28T04:53:02;94700.09;;;-1.14;83.83
41234;BME280;26968;42.686;23.352;2023-01-28T04:55:27;94741.09;;;-0.85;83.63
41234;BME280;26968;42.686;23.352;2023-01-28T04:57:53;94746.09;;;-0.90;83.65
41234;BME280;26968;42.686;23.352;2023-01-28T05:00:18;94744.50;;;-0.91;84.20
41234;BME280;26968;42.686;23.352;2023-01-28T05:02:44;94740.69;;;-0.89;83.75
41234;BME280;26968;42.686;23.352;2023-01-28T05:05:09;94704.63;;;-1.10;84.13
41234;BME280;26968;42.686;23.352;2023-01-28T05:07:35;94753.34;;;-0.92;83.11
41234;BME280;26968;42.686;23.352;2023-01-28T05:10:01;94765.19;;;-0.96;83.64
41234;BME280;26968;42.686;23.352;2023-01-28T05:12:26;94711.03;;;-1.37;83.83
41234;BME280;26968;42.686;23.352;2023-01-28T05:14:51;94738.97;;;-1.26;83.63
41234;BME280;26968;42.686;23.352;2023-01-28T05:17:17;94684.63;;;-1.66;83.76
41234;BME280;26968;42.686;23.352;2023-01-28T05:19:42;94735.00;;;-1.29;83.83
41234;BME280;26968;42.686;23.352;2023-01-28T05:22:08;94764.44;;;-1.03;83.87
41234;BME280;26968;42.686;23.352;2023-01-28T05:24:33;94762.44;;;-1.01;83.36
41234;BME280;26968;42.686;23.352;2023-01-28T05:26:59;94566.34;;;-2.38;83.60
41234;BME280;26968;42.686;23.352;2023-01-28T05:29:24;94685.06;;;-1.69;83.97
41234;BME280;26968;42.686;23.352;2023-01-28T05:31:50;94712.47;;;-1.41;84.18
41234;BME280;26968;42.686;23.352;2023-01-28T05:34:15;94639.25;;;-2.01;83.11
41234;BME280;26968;42.686;23.352;2023-01-28T05:36:40;94576.13;;;-2.40;84.00
41234;BME280;26968;42.686;23.352;2023-01-28T05:39:06;94548.44;;;-2.52;83.95
41234;BME280;26968;42.686;23.352;2023-01-28T05:41:32;94665.00;;;-1.93;83.34
41234;BME280;26968;42.686;23.352;2023-01-28T05:43:58;94640.19;;;-1.89;83.49
41234;BME280;26968;42.686;23.352;2023-01-28T05:46:23;94734.38;;;-1.24;83.35
41234;BME280;26968;42.686;23.352;2023-01-28T05:48:51;94775.09;;;-1.11;83.22
41234;BME280;26968;42.686;23.352;2023-01-28T05:51:17;94570.75;;;-2.38;82.97
41234;BME280;26968;42.686;23.352;2023-01-28T05:53:43;94779.16;;;-1.15;83.34
41234;BME280;26968;42.686;23.352;2023-01-28T05:56:08;94793.63;;;-0.95;83.26
41234;BME280;26968;42.686;23.352;2023-01-28T05:58:33;94686.44;;;-1.66;82.84
41234;BME280;26968;42.686;23.352;2023-01-28T06:00:59;94728.09;;;-1.41;82.10
41234;BME280;26968;42.686;23.352;2023-01-28T06:03:24;94798.47;;;-1.05;82.66
41234;BME280;26968;42.686;23.352;2023-01-28T06:05:50;94771.00;;;-1.26;82.68
41234;BME280;26968;42.686;23.352;2023-01-28T06:08:15;94807.69;;;-1.02;82.83
41234;BME280;26968;42.686;23.352;2023-01-28T06:10:40;94813.72;;;-1.08;82.74
41234;BME280;26968;42.686;23.352;2023-01-28T06:13:06;94816.94;;;-1.13;83.49
41234;BME280;26968;42.686;23.352;2023-01-28T06:15:31;94788.81;;;-1.23;82.78
41234;BME280;26968;42.686;23.352;2023-01-28T06:17:57;94804.56;;;-1.18;83.08
41234;BME280;26968;42.686;23.352;2023-01-28T06:20:23;94822.53;;;-1.09;83.32
41234;BME280;26968;42.686;23.352;2023-01-28T06:22:51;94736.00;;;-1.61;82.85
41234;BME280;26968;42.686;23.352;2023-01-28T06:25:17;94838.06;;;-0.96;83.33
41234;BME280;26968;42.686;23.352;2023-01-28T06:27:43;94823.28;;;-1.02;82.98
41234;BME280;26968;42.686;23.352;2023-01-28T06:30:09;94814.75;;;-1.09;82.60
41234;BME280;26968;42.686;23.352;2023-01-28T06:32:35;94836.16;;;-1.07;82.46
41234;BME280;26968;42.686;23.352;2023-01-28T06:35:01;94774.50;;;-1.45;82.99
41234;BME280;26968;42.686;23.352;2023-01-28T06:37:26;94739.31;;;-1.79;82.05
41234;BME280;26968;42.686;23.352;2023-01-28T06:39:51;94799.88;;;-1.34;82.43
41234;BME280;26968;42.686;23.352;2023-01-28T06:42:17;94820.50;;;-1.01;83.62
41234;BME280;26968;42.686;23.352;2023-01-28T06:44:42;94762.28;;;-1.38;82.57
41234;BME280;26968;42.686;23.352;2023-01-28T06:47:08;94853.09;;;-0.98;82.21
41234;BME280;26968;42.686;23.352;2023-01-28T06:49:36;94860.28;;;-0.94;82.57
41234;BME280;26968;42.686;23.352;2023-01-28T06:52:01;94788.06;;;-1.36;82.17
41234;BME280;26968;42.686;23.352;2023-01-28T06:54:26;94813.03;;;-1.29;82.55
41234;BME280;26968;42.686;23.352;2023-01-28T06:56:52;94749.47;;;-1.71;82.38
41234;BME280;26968;42.686;23.352;2023-01-28T06:59:17;94805.41;;;-1.24;82.48
41234;BME280;26968;42.686;23.352;2023-01-28T07:01:43;94835.81;;;-1.18;81.48
41234;BME280;26968;42.686;23.352;2023-01-28T07:04:08;94792.53;;;-1.50;81.34
41234;BME280;26968;42.686;23.352;2023-01-28T07:06:35;94873.16;;;-1.05;81.92
41234;BME280;26968;42.686;23.352;2023-01-28T07:09:00;94793.16;;;-1.48;82.42
41234;BME280;26968;42.686;23.352;2023-01-28T07:11:26;94872.66;;;-0.89;82.36
41234;BME280;26968;42.686;23.352;2023-01-28T07:13:52;94836.41;;;-1.15;81.92
41234;BME280;26968;42.686;23.352;2023-01-28T07:16:17;94882.22;;;-0.83;81.58
41234;BME280;26968;42.686;23.352;2023-01-28T07:18:43;94803.50;;;-1.41;82.12
41234;BME280;26968;42.686;23.352;2023-01-28T07:21:08;94771.78;;;-1.57;82.19
41234;BME280;26968;42.686;23.352;2023-01-28T07:23:34;94861.94;;;-1.06;82.51
41234;BME280;26968;42.686;23.352;2023-01-28T07:26:01;94822.47;;;-1.34;82.21
41234;BME280;26968;42.686;23.352;2023-01-28T07:28:26;94805.28;;;-1.35;82.10
41234;BME280;26968;42.686;23.352;2023-01-28T07:30:52;94880.16;;;-0.99;82.09
41234;BME280;26968;42.686;23.352;2023-01-28T07:33:17;94847.84;;;-1.23;81.25
41234;BME280;26968;42.686;23.352;2023-01-28T07:35:44;94907.09;;;-0.87;81.94
41234;BME280;26968;42.686;23.352;2023-01-28T07:38:09;94915.50;;;-0.85;82.06
41234;BME280;26968;42.686;23.352;2023-01-28T07:40:35;94914.53;;;-0.91;82.32
41234;BME280;26968;42.686;23.352;2023-01-28T07:43:00;94879.38;;;-1.06;81.90
41234;BME280;26968;42.686;23.352;2023-01-28T07:45:26;94899.78;;;-1.03;81.87
41234;BME280;26968;42.686;23.352;2023-01-28T07:48:02;94919.31;;;-0.88;82.39
41234;BME280;26968;42.686;23.352;2023-01-28T07:50:29;94851.34;;;-1.42;81.31
41234;BME280;26968;42.686;23.352;2023-01-28T07:52:56;94917.63;;;-1.07;82.25
41234;BME280;26968;42.686;23.352;2023-01-28T07:55:21;94930.38;;;-0.92;82.79
41234;BME280;26968;42.686;23.352;2023-01-28T07:57:52;94930.75;;;-0.89;82.03
41234;BME280;26968;42.686;23.352;2023-01-28T08:00:19;94832.56;;;-1.51;82.16
41234;BME280;26968;42.686;23.352;2023-01-28T08:02:45;94905.06;;;-1.17;82.04
41234;BME280;26968;42.686;23.352;2023-01-28T08:05:20;94823.84;;;-1.70;82.75
41234;BME280;26968;42.686;23.352;2023-01-28T08:07:47;94885.84;;;-1.15;82.85
41234;BME280;26968;42.686;23.352;2023-01-28T08:10:15;94840.31;;;-1.44;82.03
41234;BME280;26968;42.686;23.352;2023-01-28T08:12:49;94934.09;;;-0.82;82.23
41234;BME280;26968;42.686;23.352;2023-01-28T08:15:15;94889.97;;;-1.01;81.77
41234;BME280;26968;42.686;23.352;2023-01-28T08:17:40;94887.97;;;-1.06;81.26
41234;BME280;26968;42.686;23.352;2023-01-28T08:20:06;94943.47;;;-0.74;82.15
41234;BME280;26968;42.686;23.352;2023-01-28T08:22:32;94933.69;;;-0.79;81.33
41234;BME280;26968;42.686;23.352;2023-01-28T08:24:57;94921.88;;;-0.81;80.94
41234;BME280;26968;42.686;23.352;2023-01-28T08:27:22;94882.53;;;-0.98;80.39
41234;BME280;26968;42.686;23.352;2023-01-28T08:29:48;94940.38;;;-0.58;81.02
41234;BME280;26968;42.686;23.352;2023-01-28T08:32:13;94938.47;;;-0.44;81.17
41234;BME280;26968;42.686;23.352;2023-01-28T08:34:39;94948.28;;;-0.40;80.68
41234;BME280;26968;42.686;23.352;2023-01-28T08:37:04;94853.00;;;-1.17;79.82
41234;BME280;26968;42.686;23.352;2023-01-28T08:39:30;94897.44;;;-0.80;79.87
41234;BME280;26968;42.686;23.352;2023-01-28T08:41:55;94877.50;;;-0.93;79.56
41234;BME280;26968;42.686;23.352;2023-01-28T08:44:21;94953.41;;;-0.58;79.28
41234;BME280;26968;42.686;23.352;2023-01-28T08:46:46;94891.13;;;-0.97;79.45
41234;BME280;26968;42.686;23.352;2023-01-28T08:49:11;94953.75;;;-0.48;80.46
41234;BME280;26968;42.686;23.352;2023-01-28T08:51:37;94856.22;;;-1.14;79.81
41234;BME280;26968;42.686;23.352;2023-01-28T08:54:02;94842.22;;;-1.20;80.69
41234;BME280;26968;42.686;23.352;2023-01-28T08:56:28;94948.84;;;-0.38;80.00
41234;BME280;26968;42.686;23.352;2023-01-28T08:58:54;94923.75;;;-0.57;79.64
41234;BME280;26968;42.686;23.352;2023-01-28T09:01:20;94874.59;;;-0.78;79.56
41234;BME280;26968;42.686;23.352;2023-01-28T09:03:45;94918.38;;;-0.62;79.70
41234;BME280;26968;42.686;23.352;2023-01-28T09:06:10;94958.28;;;-0.36;79.69
41234;BME280;26968;42.686;23.352;2023-01-28T09:08:36;94943.69;;;-0.44;79.87
41234;BME280;26968;42.686;23.352;2023-01-28T09:11:01;94966.69;;;-0.34;79.37
41234;BME280;26968;42.686;23.352;2023-01-28T09:13:27;94924.19;;;-0.66;78.91
41234;BME280;26968;42.686;23.352;2023-01-28T09:15:52;94883.28;;;-0.91;79.88
41234;BME280;26968;42.686;23.352;2023-01-28T09:18:18;94875.91;;;-0.94;79.68
41234;BME280;26968;42.686;23.352;2023-01-28T09:20:44;94965.56;;;-0.20;80.45
41234;BME280;26968;42.686;23.352;2023-01-28T09:23:10;94964.91;;;-0.41;79.64
41234;BME280;26968;42.686;23.352;2023-01-28T09:25:35;94864.09;;;-0.96;79.90
41234;BME280;26968;42.686;23.352;2023-01-28T09:28:01;94960.56;;;-0.47;80.47
41234;BME280;26968;42.686;23.352;2023-01-28T09:30:27;94961.16;;;-0.51;80.34
41234;BME280;26968;42.686;23.352;2023-01-28T09:32:54;94900.75;;;-0.98;80.20
41234;BME280;26968;42.686;23.352;2023-01-28T09:35:20;94865.63;;;-1.20;80.18
41234;BME280;26968;42.686;23.352;2023-01-28T09:37:46;94887.16;;;-1.00;80.90
41234;BME280;26968;42.686;23.352;2023-01-28T09:40:35;94795.59;;;-1.53;80.95
41234;BME280;26968;42.686;23.352;2023-01-28T09:45:37;94953.69;;;-0.41;81.23
41234;BME280;26968;42.686;23.352;2023-01-28T09:48:08;94961.63;;;-0.29;81.36
41234;BME280;26968;42.686;23.352;2023-01-28T09:50:39;94958.59;;;-0.26;81.54
41234;BME280;26968;42.686;23.352;2023-01-28T09:53:28;94893.91;;;-0.61;80.69
41234;BME280;26968;42.686;23.352;2023-01-28T09:56:04;94959.63;;;-0.27;80.73
41234;BME280;26968;42.686;23.352;2023-01-28T09:58:31;94909.75;;;-0.62;80.84
41234;BME280;26968;42.686;23.352;2023-01-28T10:01:01;94917.09;;;-0.53;81.60
41234;BME280;26968;42.686;23.352;2023-01-28T10:08:55;94963.97;;;-0.21;81.49
41234;BME280;26968;42.686;23.352;2023-01-28T10:14:50;94954.69;;;-0.42;82.71
41234;BME280;26968;42.686;23.352;2023-01-28T10:17:33;94927.75;;;-0.61;82.27
41234;BME280;26968;42.686;23.352;2023-01-28T10:20:16;94882.72;;;-0.93;82.54
41234;BME280;26968;42.686;23.352;2023-01-28T10:25:45;94882.22;;;-0.76;82.50
41234;BME280;26968;42.686;23.352;2023-01-28T10:28:27;94962.81;;;-0.25;82.37
41234;BME280;26968;42.686;23.352;2023-01-28T10:30:53;94861.44;;;-0.90;82.02
41234;BME280;26968;42.686;23.352;2023-01-28T10:33:32;94951.31;;;-0.18;81.66
41234;BME280;26968;42.686;23.352;2023-01-28T10:35:59;94873.13;;;-0.67;82.23
41234;BME280;26968;42.686;23.352;2023-01-28T10:38:26;94857.34;;;-0.72;81.43
41234;BME280;26968;42.686;23.352;2023-01-28T10:40:54;94888.44;;;-0.53;81.35
41234;BME280;26968;42.686;23.352;2023-01-28T10:43:24;94858.47;;;-0.62;81.30
41234;BME280;26968;42.686;23.352;2023-01-28T10:46:16;94947.66;;;-0.10;81.79
41234;BME280;26968;42.686;23.352;2023-01-28T10:51:11;94889.25;;;-0.52;81.45
41234;BME280;26968;42.686;23.352;2023-01-28T10:53:38;94952.63;;;-0.02;80.94
41234;BME280;26968;42.686;23.352;2023-01-28T10:56:22;94960.63;;;-0.04;80.92
41234;BME280;26968;42.686;23.352;2023-01-28T10:59:02;94945.41;;;-0.07;80.74
41234;BME280;26968;42.686;23.352;2023-01-28T11:01:55;94951.47;;;-0.13;80.62
41234;BME280;26968;42.686;23.352;2023-01-28T11:04:33;94879.97;;;-0.73;80.86
41234;BME280;26968;42.686;23.352;2023-01-28T11:07:15;94898.06;;;-0.53;81.06
41234;BME280;26968;42.686;23.352;2023-01-28T11:09:45;94963.41;;;-0.23;80.46
41234;BME280;26968;42.686;23.352;2023-01-28T11:12:25;94827.91;;;-1.04;80.80
41234;BME280;26968;42.686;23.352;2023-01-28T11:14:56;94786.41;;;-1.24;80.42
41234;BME280;26968;42.686;23.352;2023-01-28T11:17:25;94947.28;;;-0.14;80.23
41234;BME280;26968;42.686;23.352;2023-01-28T11:19:58;94945.22;;;-0.05;80.58
41234;BME280;26968;42.686;23.352;2023-01-28T11:22:34;94932.00;;;0.15;80.32
41234;BME280;26968;42.686;23.352;2023-01-28T11:25:03;94913.03;;;-0.17;80.01
41234;BME280;26968;42.686;23.352;2023-01-28T11:27:30;94848.56;;;-0.53;79.29
41234;BME280;26968;42.686;23.352;2023-01-28T11:29:58;94871.34;;;-0.42;79.05
41234;BME280;26968;42.686;23.352;2023-01-28T11:32:28;94955.50;;;0.08;79.53
41234;BME280;26968;42.686;23.352;2023-01-28T11:34:56;94941.72;;;0.08;80.20
41234;BME280;26968;42.686;23.352;2023-01-28T11:37:24;94942.88;;;0.12;79.34
41234;BME280;26968;42.686;23.352;2023-01-28T11:40:01;94940.56;;;0.22;79.58
41234;BME280;26968;42.686;23.352;2023-01-28T11:42:27;94895.19;;;0.05;79.62
41234;BME280;26968;42.686;23.352;2023-01-28T11:44:52;94807.34;;;-0.56;78.41
41234;BME280;26968;42.686;23.352;2023-01-28T11:50:41;94861.53;;;-0.22;78.54
41234;BME280;26968;42.686;23.352;2023-01-28T11:58:47;94936.63;;;0.37;78.60
41234;BME280;26968;42.686;23.352;2023-01-28T12:01:23;94932.81;;;0.33;78.31
41234;BME280;26968;42.686;23.352;2023-01-28T12:23:04;94851.81;;;-0.08;77.40
41234;BME280;26968;42.686;23.352;2023-01-28T12:37:06;94887.41;;;0.41;78.16
41234;BME280;26968;42.686;23.352;2023-01-28T12:42:31;94881.75;;;0.26;76.66
41234;BME280;26968;42.686;23.352;2023-01-28T12:45:39;94962.50;;;0.57;76.99
41234;BME280;26968;42.686;23.352;2023-01-28T12:48:27;94951.03;;;0.58;76.13
41234;BME280;26968;42.686;23.352;2023-01-28T12:51:11;94951.31;;;0.50;77.92
41234;BME280;26968;42.686;23.352;2023-01-28T12:54:05;94959.28;;;0.55;77.24
41234;BME280;26968;42.686;23.352;2023-01-28T12:56:39;94902.16;;;0.11;77.41
41234;BME280;26968;42.686;23.352;2023-01-28T12:59:14;94954.00;;;0.44;77.50
41234;BME280;26968;42.686;23.352;2023-01-28T13:01:48;94969.88;;;0.42;77.57
41234;BME280;26968;42.686;23.352;2023-01-28T13:09:34;94964.06;;;0.40;78.05
41234;BME280;26968;42.686;23.352;2023-01-28T13:12:02;94933.31;;;0.24;77.51
41234;BME280;26968;42.686;23.352;2023-01-28T13:14:31;94950.16;;;0.46;78.96
41234;BME280;26968;42.686;23.352;2023-01-28T13:17:12;94986.72;;;0.64;78.23
41234;BME280;26968;42.686;23.352;2023-01-28T13:19:48;94974.47;;;0.65;77.33
41234;BME280;26968;42.686;23.352;2023-01-28T13:22:34;94975.97;;;0.72;78.07
41234;BME280;26968;42.686;23.352;2023-01-28T13:25:25;94982.53;;;0.82;76.14
41234;BME280;26968;42.686;23.352;2023-01-28T13:28:05;94959.19;;;0.68;77.82
41234;BME280;26968;42.686;23.352;2023-01-28T13:30:45;94890.16;;;0.28;77.73
41234;BME280;26968;42.686;23.352;2023-01-28T13:33:30;94992.75;;;0.83;76.87
41234;BME280;26968;42.686;23.352;2023-01-28T13:35:57;94917.91;;;0.41;76.67
41234;BME280;26968;42.686;23.352;2023-01-28T13:38:26;94923.50;;;0.44;77.28
41234;BME280;26968;42.686;23.352;2023-01-28T13:40:55;94985.63;;;0.72;76.53
41234;BME280;26968;42.686;23.352;2023-01-28T13:45:58;94993.53;;;0.65;76.88
41234;BME280;26968;42.686;23.352;2023-01-28T13:48:44;94991.28;;;0.69;77.40
41234;BME280;26968;42.686;23.352;2023-01-28T13:51:31;95006.84;;;0.57;75.30
41234;BME280;26968;42.686;23.352;2023-01-28T13:54:01;94995.16;;;0.42;76.09
41234;BME280;26968;42.686;23.352;2023-01-28T13:56:32;94922.66;;;-0.18;76.16
41234;BME280;26968;42.686;23.352;2023-01-28T14:01:34;95016.41;;;0.45;76.25
41234;BME280;26968;42.686;23.352;2023-01-28T14:07:14;94986.59;;;0.10;77.53
41234;BME280;26968;42.686;23.352;2023-01-28T14:18:33;95031.84;;;0.22;78.46
41234;BME280;26968;42.686;23.352;2023-01-28T14:21:02;95006.34;;;-0.01;78.02
41234;BME280;26968;42.686;23.352;2023-01-28T14:23:35;94933.19;;;-0.62;78.10
41234;BME280;26968;42.686;23.352;2023-01-28T14:26:11;95049.03;;;0.05;78.41
41234;BME280;26968;42.686;23.352;2023-01-28T14:28:48;95035.84;;;-0.07;78.29
41234;BME280;26968;42.686;23.352;2023-01-28T14:31:44;95050.97;;;-0.16;78.22
41234;BME280;26968;42.686;23.352;2023-01-28T14:34:33;95045.16;;;-0.18;78.59
41234;BME280;26968;42.686;23.352;2023-01-28T14:37:03;95056.34;;;-0.11;79.14
41234;BME280;26968;42.686;23.352;2023-01-28T14:39:31;94973.28;;;-0.63;78.30
41234;BME280;26968;42.686;23.352;2023-01-28T14:42:01;95046.28;;;-0.07;78.79
41234;BME280;26968;42.686;23.352;2023-01-28T14:47:46;95053.09;;;-0.06;79.36
41234;BME280;26968;42.686;23.352;2023-01-28T14:49:59;95066.59;;;-0.16;78.35